sensor_id;sensor_type;location;lat;lon;timestamp;pressure;altitude;pressure_sealevel;temperature;humidity
14089;BME280;7120;52.890;6.040;2022-12-16T00:01:30;100941.22;;;0.40;95.54
14089;BME280;7120;52.890;6.040;2022-12-16T00:03:57;100953.53;;;0.60;95.33
14089;BME280;7120;52.890;6.040;2022-12-16T00:06:26;100948.75;;;0.50;96.18
14089;BME280;7120;52.890;6.040;2022-12-16T00:08:51;100955.31;;;0.66;96.33
14089;BME280;7120;52.890;6.040;2022-12-16T00:11:16;100961.25;;;0.56;97.23
14089;BME280;7120;52.890;6.040;2022-12-16T00:13:42;100955.88;;;0.68;97.07
14089;BME280;7120;52.890;6.040;2022-12-16T00:16:12;100944.28;;;0.55;97.22
14089;BME280;7120;52.890;6.040;2022-12-16T00:18:38;100929.19;;;0.43;97.24
14089;BME280;7120;52.890;6.040;2022-12-16T00:21:05;100959.59;;;0.55;97.53
14089;BME280;7120;52.890;6.040;2022-12-16T00:23:32;100932.44;;;0.33;97.19
14089;BME280;7120;52.890;6.040;2022-12-16T00:25:57;100952.13;;;0.45;97.43
14089;BME280;7120;52.890;6.040;2022-12-16T00:28:23;100951.03;;;0.35;97.29
14089;BME280;7120;52.890;6.040;2022-12-16T00:30:50;100950.59;;;0.38;97.85
14089;BME280;7120;52.890;6.040;2022-12-16T00:33:16;100942.75;;;0.48;97.50
14089;BME280;7120;52.890;6.040;2022-12-16T00:35:42;100938.09;;;0.55;97.29
14089;BME280;7120;52.890;6.040;2022-12-16T00:38:08;100949.91;;;0.54;97.27
14089;BME280;7120;52.890;6.040;2022-12-16T00:40:33;100948.94;;;0.48;97.10
14089;BME280;7120;52.890;6.040;2022-12-16T00:42:59;100956.44;;;0.46;97.13
14089;BME280;7120;52.890;6.040;2022-12-16T00:45:24;100947.19;;;0.31;97.54
14089;BME280;7120;52.890;6.040;2022-12-16T00:47:49;100944.75;;;0.29;98.04
14089;BME280;7120;52.890;6.040;2022-12-16T00:50:15;100959.25;;;0.40;97.30
14089;BME280;7120;52.890;6.040;2022-12-16T00:52:41;100961.50;;;0.43;97.51
14089;BME280;7120;52.890;6.040;2022-12-16T00:55:06;100957.47;;;0.34;97.82
14089;BME280;7120;52.890;6.040;2022-12-16T00:57:32;100962.75;;;0.40;97.40
14089;BME280;7120;52.890;6.040;2022-12-16T00:59:58;100955.16;;;0.37;97.47
14089;BME280;7120;52.890;6.040;2022-12-16T01:02:23;100963.00;;;0.62;97.69
14089;BME280;7120;52.890;6.040;2022-12-16T01:04:48;100963.72;;;0.58;97.13
14089;BME280;7120;52.890;6.040;2022-12-16T01:07:14;100965.19;;;0.42;97.54
14089;BME280;7120;52.890;6.040;2022-12-16T01:09:39;100977.16;;;0.46;97.65
14089;BME280;7120;52.890;6.040;2022-12-16T01:12:05;100971.53;;;0.36;97.28
14089;BME280;7120;52.890;6.040;2022-12-16T01:14:30;100974.06;;;0.19;96.74
14089;BME280;7120;52.890;6.040;2022-12-16T01:16:56;100970.50;;;0.07;96.29
14089;BME280;7120;52.890;6.040;2022-12-16T01:19:21;100985.78;;;-0.06;95.82
14089;BME280;7120;52.890;6.040;2022-12-16T01:21:46;100997.28;;;0.02;96.56
14089;BME280;7120;52.890;6.040;2022-12-16T01:24:12;100994.44;;;-0.04;96.31
14089;BME280;7120;52.890;6.040;2022-12-16T01:26:37;100993.47;;;-0.09;96.67
14089;BME280;7120;52.890;6.040;2022-12-16T01:29:03;101006.97;;;0.03;97.04
14089;BME280;7120;52.890;6.040;2022-12-16T01:31:29;101001.44;;;0.27;96.01
14089;BME280;7120;52.890;6.040;2022-12-16T01:33:54;101008.91;;;0.25;94.59
14089;BME280;7120;52.890;6.040;2022-12-16T01:36:20;101018.19;;;0.30;94.04
14089;BME280;7120;52.890;6.040;2022-12-16T01:38:45;101011.88;;;0.06;94.02
14089;BME280;7120;52.890;6.040;2022-12-16T01:41:12;101021.00;;;0.05;93.67
14089;BME280;7120;52.890;6.040;2022-12-16T01:43:39;101011.38;;;-0.03;93.12
14089;BME280;7120;52.890;6.040;2022-12-16T01:46:23;101033.22;;;-0.11;92.96
14089;BME280;7120;52.890;6.040;2022-12-16T01:49:03;101032.50;;;-0.73;93.62
14089;BME280;7120;52.890;6.040;2022-12-16T01:51:35;101033.06;;;-0.71;94.70
14089;BME280;7120;52.890;6.040;2022-12-16T01:54:07;101044.63;;;-0.71;95.23
14089;BME280;7120;52.890;6.040;2022-12-16T01:56:34;101041.22;;;-0.60;95.62
14089;BME280;7120;52.890;6.040;2022-12-16T01:59:01;101041.09;;;-0.46;95.77
14089;BME280;7120;52.890;6.040;2022-12-16T02:01:27;101049.34;;;-0.30;95.80
14089;BME280;7120;52.890;6.040;2022-12-16T02:03:53;101035.31;;;-0.50;95.20
14089;BME280;7120;52.890;6.040;2022-12-16T02:06:20;101046.53;;;-0.53;95.34
14089;BME280;7120;52.890;6.040;2022-12-16T02:08:54;101055.63;;;-0.36;95.62
14089;BME280;7120;52.890;6.040;2022-12-16T02:22:48;101059.50;;;-0.13;95.36
14089;BME280;7120;52.890;6.040;2022-12-16T02:38:59;101061.41;;;0.28;94.77
14089;BME280;7120;52.890;6.040;2022-12-16T02:41:36;101061.41;;;0.28;94.92
14089;BME280;7120;52.890;6.040;2022-12-16T02:44:07;101064.09;;;0.58;94.38
14089;BME280;7120;52.890;6.040;2022-12-16T02:46:40;101070.16;;;0.53;93.67
14089;BME280;7120;52.890;6.040;2022-12-16T02:49:07;101068.38;;;0.47;93.06
14089;BME280;7120;52.890;6.040;2022-12-16T02:51:36;101062.44;;;0.15;92.76
14089;BME280;7120;52.890;6.040;2022-12-16T02:54:02;101085.41;;;0.30;93.13
14089;BME280;7120;52.890;6.040;2022-12-16T02:59:40;101077.22;;;0.24;93.25
14089;BME280;7120;52.890;6.040;2022-12-16T03:07:03;101088.66;;;0.50;93.59
14089;BME280;7120;52.890;6.040;2022-12-16T03:09:32;101091.28;;;0.38;92.66
14089;BME280;7120;52.890;6.040;2022-12-16T03:12:02;101092.66;;;0.59;92.93
14089;BME280;7120;52.890;6.040;2022-12-16T03:14:32;101088.44;;;0.63;92.38
14089;BME280;7120;52.890;6.040;2022-12-16T03:17:01;101087.66;;;0.74;91.76
14089;BME280;7120;52.890;6.040;2022-12-16T03:19:28;101089.06;;;0.77;91.35
14089;BME280;7120;52.890;6.040;2022-12-16T03:22:10;101093.06;;;0.44;91.28
14089;BME280;7120;52.890;6.040;2022-12-16T03:24:37;101082.22;;;0.63;91.91
14089;BME280;7120;52.890;6.040;2022-12-16T03:27:50;101092.78;;;0.76;91.18
14089;BME280;7120;52.890;6.040;2022-12-16T03:30:08;101093.06;;;0.86;90.74
14089;BME280;7120;52.890;6.040;2022-12-16T03:32:55;101102.25;;;0.67;90.19
14089;BME280;7120;52.890;6.040;2022-12-16T03:37:54;101108.47;;;0.67;90.05
14089;BME280;7120;52.890;6.040;2022-12-16T03:40:22;101108.03;;;0.82;89.52
14089;BME280;7120;52.890;6.040;2022-12-16T03:42:51;101091.97;;;0.75;89.21
14089;BME280;7120;52.890;6.040;2022-12-16T03:45:25;101104.09;;;0.54;89.96
14089;BME280;7120;52.890;6.040;2022-12-16T03:47:52;101106.53;;;0.56;89.59
14089;BME280;7120;52.890;6.040;2022-12-16T03:50:22;101117.09;;;0.58;89.06
14089;BME280;7120;52.890;6.040;2022-12-16T03:52:49;101117.91;;;0.58;88.92
14089;BME280;7120;52.890;6.040;2022-12-16T03:55:14;101126.84;;;0.40;89.27
14089;BME280;7120;52.890;6.040;2022-12-16T03:57:40;101123.28;;;0.28;89.35
14089;BME280;7120;52.890;6.040;2022-12-16T04:00:05;101129.03;;;0.32;89.53
14089;BME280;7120;52.890;6.040;2022-12-16T04:02:31;101115.22;;;0.28;89.73
14089;BME280;7120;52.890;6.040;2022-12-16T04:04:56;101130.09;;;0.31;89.30
14089;BME280;7120;52.890;6.040;2022-12-16T04:07:22;101124.13;;;0.29;90.25
14089;BME280;7120;52.890;6.040;2022-12-16T04:09:51;101129.78;;;0.39;89.61
14089;BME280;7120;52.890;6.040;2022-12-16T04:12:17;101143.63;;;0.54;89.58
14089;BME280;7120;52.890;6.040;2022-12-16T04:15:01;101134.84;;;0.47;89.66
14089;BME280;7120;52.890;6.040;2022-12-16T04:17:45;101129.66;;;0.64;89.28
14089;BME280;7120;52.890;6.040;2022-12-16T04:20:31;101134.78;;;0.65;88.97
14089;BME280;7120;52.890;6.040;2022-12-16T04:23:18;101136.78;;;0.70;88.81
14089;BME280;7120;52.890;6.040;2022-12-16T04:26:02;101129.84;;;0.62;89.15
14089;BME280;7120;52.890;6.040;2022-12-16T04:28:28;101132.69;;;0.67;89.58
14089;BME280;7120;52.890;6.040;2022-12-16T04:30:54;101128.41;;;0.78;89.11
14089;BME280;7120;52.890;6.040;2022-12-16T04:33:21;101125.56;;;0.73;88.46
14089;BME280;7120;52.890;6.040;2022-12-16T04:36:06;101139.13;;;0.66;88.68
14089;BME280;7120;52.890;6.040;2022-12-16T04:38:51;101129.19;;;0.67;89.08
14089;BME280;7120;52.890;6.040;2022-12-16T04:41:34;101134.56;;;0.67;88.96
14089;BME280;7120;52.890;6.040;2022-12-16T04:44:18;101140.50;;;0.57;88.54
14089;BME280;7120;52.890;6.040;2022-12-16T04:47:02;101146.47;;;0.59;88.91
14089;BME280;7120;52.890;6.040;2022-12-16T04:49:46;101138.56;;;0.76;88.82
14089;BME280;7120;52.890;6.040;2022-12-16T04:52:30;101142.16;;;0.70;88.63
14089;BME280;7120;52.890;6.040;2022-12-16T04:55:21;101153.25;;;0.62;89.07
14089;BME280;7120;52.890;6.040;2022-12-16T04:58:05;101143.63;;;0.54;88.83
14089;BME280;7120;52.890;6.040;2022-12-16T05:00:49;101147.78;;;0.68;88.72
14089;BME280;7120;52.890;6.040;2022-12-16T05:03:34;101156.13;;;0.48;89.11
14089;BME280;7120;52.890;6.040;2022-12-16T05:06:19;101153.75;;;0.40;89.80
14089;BME280;7120;52.890;6.040;2022-12-16T05:09:04;101170.28;;;0.44;89.24
14089;BME280;7120;52.890;6.040;2022-12-16T05:11:48;101163.25;;;0.43;89.10
14089;BME280;7120;52.890;6.040;2022-12-16T05:14:33;101170.75;;;0.22;88.92
14089;BME280;7120;52.890;6.040;2022-12-16T05:17:16;101161.25;;;0.20;89.53
14089;BME280;7120;52.890;6.040;2022-12-16T05:20:01;101174.38;;;0.28;88.71
14089;BME280;7120;52.890;6.040;2022-12-16T05:22:45;101180.81;;;0.27;88.78
14089;BME280;7120;52.890;6.040;2022-12-16T05:25:29;101165.81;;;0.19;88.45
14089;BME280;7120;52.890;6.040;2022-12-16T05:28:13;101175.50;;;0.20;88.49
14089;BME280;7120;52.890;6.040;2022-12-16T05:30:57;101165.75;;;0.08;88.94
14089;BME280;7120;52.890;6.040;2022-12-16T05:33:41;101169.84;;;0.10;88.81
14089;BME280;7120;52.890;6.040;2022-12-16T05:36:25;101195.63;;;0.18;88.85
14089;BME280;7120;52.890;6.040;2022-12-16T05:39:09;101188.00;;;0.15;88.79
14089;BME280;7120;52.890;6.040;2022-12-16T05:41:54;101181.13;;;0.19;88.73
14089;BME280;7120;52.890;6.040;2022-12-16T05:44:38;101185.75;;;0.30;88.42
14089;BME280;7120;52.890;6.040;2022-12-16T05:47:23;101182.00;;;0.31;88.13
14089;BME280;7120;52.890;6.040;2022-12-16T05:50:07;101188.44;;;0.30;88.92
14089;BME280;7120;52.890;6.040;2022-12-16T05:52:53;101180.16;;;0.32;88.34
14089;BME280;7120;52.890;6.040;2022-12-16T05:55:38;101189.31;;;0.42;88.79
14089;BME280;7120;52.890;6.040;2022-12-16T05:58:22;101184.47;;;0.33;88.26
14089;BME280;7120;52.890;6.040;2022-12-16T06:01:06;101185.03;;;0.53;88.78
14089;BME280;7120;52.890;6.040;2022-12-16T06:03:51;101183.50;;;0.45;88.48
14089;BME280;7120;52.890;6.040;2022-12-16T06:06:35;101195.81;;;0.53;88.85
14089;BME280;7120;52.890;6.040;2022-12-16T06:09:20;101193.91;;;0.72;88.31
14089;BME280;7120;52.890;6.040;2022-12-16T06:12:04;101201.03;;;0.66;88.03
14089;BME280;7120;52.890;6.040;2022-12-16T06:14:48;101197.78;;;0.76;88.07
14089;BME280;7120;52.890;6.040;2022-12-16T06:17:31;101203.31;;;0.81;87.84
14089;BME280;7120;52.890;6.040;2022-12-16T06:20:15;101208.38;;;0.89;87.45
14089;BME280;7120;52.890;6.040;2022-12-16T06:22:59;101213.41;;;0.97;87.80
14089;BME280;7120;52.890;6.040;2022-12-16T06:25:43;101211.72;;;0.85;87.73
14089;BME280;7120;52.890;6.040;2022-12-16T06:28:27;101214.81;;;0.88;88.27
14089;BME280;7120;52.890;6.040;2022-12-16T06:31:10;101220.28;;;0.81;88.29
14089;BME280;7120;52.890;6.040;2022-12-16T06:33:55;101226.72;;;0.80;88.89
14089;BME280;7120;52.890;6.040;2022-12-16T06:36:39;101218.88;;;0.79;89.69
14089;BME280;7120;52.890;6.040;2022-12-16T06:39:23;101227.59;;;0.93;89.05
14089;BME280;7120;52.890;6.040;2022-12-16T06:42:07;101221.69;;;0.84;89.70
14089;BME280;7120;52.890;6.040;2022-12-16T06:44:51;101209.25;;;0.71;90.14
14089;BME280;7120;52.890;6.040;2022-12-16T06:47:37;101236.56;;;0.87;90.52
14089;BME280;7120;52.890;6.040;2022-12-16T06:50:21;101247.69;;;0.90;90.53
14089;BME280;7120;52.890;6.040;2022-12-16T06:53:05;101240.72;;;0.71;91.44
14089;BME280;7120;52.890;6.040;2022-12-16T06:55:49;101252.06;;;0.73;92.13
14089;BME280;7120;52.890;6.040;2022-12-16T06:58:33;101254.13;;;0.89;92.22
14089;BME280;7120;52.890;6.040;2022-12-16T07:01:17;101260.94;;;0.92;92.55
14089;BME280;7120;52.890;6.040;2022-12-16T07:04:01;101264.56;;;0.86;93.24
14089;BME280;7120;52.890;6.040;2022-12-16T07:06:45;101262.22;;;0.89;93.92
14089;BME280;7120;52.890;6.040;2022-12-16T07:09:29;101268.78;;;0.93;94.44
14089;BME280;7120;52.890;6.040;2022-12-16T07:12:19;101273.22;;;0.88;94.49
14089;BME280;7120;52.890;6.040;2022-12-16T07:15:06;101291.16;;;0.94;94.22
14089;BME280;7120;52.890;6.040;2022-12-16T07:17:50;101281.53;;;0.86;94.86
14089;BME280;7120;52.890;6.040;2022-12-16T07:20:34;101286.66;;;1.06;94.79
14089;BME280;7120;52.890;6.040;2022-12-16T07:23:18;101280.22;;;1.07;94.54
14089;BME280;7120;52.890;6.040;2022-12-16T07:26:02;101293.78;;;1.12;94.77
14089;BME280;7120;52.890;6.040;2022-12-16T07:28:46;101299.41;;;1.10;94.44
14089;BME280;7120;52.890;6.040;2022-12-16T07:31:30;101296.97;;;1.09;94.84
14089;BME280;7120;52.890;6.040;2022-12-16T07:34:14;101297.38;;;1.24;94.08
14089;BME280;7120;52.890;6.040;2022-12-16T07:36:58;101308.69;;;1.15;94.38
14089;BME280;7120;52.890;6.040;2022-12-16T07:39:41;101315.63;;;1.22;94.65
14089;BME280;7120;52.890;6.040;2022-12-16T07:42:26;101314.81;;;1.22;94.61
14089;BME280;7120;52.890;6.040;2022-12-16T07:45:10;101328.13;;;1.17;95.22
14089;BME280;7120;52.890;6.040;2022-12-16T07:47:54;101330.69;;;1.12;95.55
14089;BME280;7120;52.890;6.040;2022-12-16T07:50:38;101327.09;;;1.18;95.99
14089;BME280;7120;52.890;6.040;2022-12-16T07:53:23;101331.97;;;1.09;95.51
14089;BME280;7120;52.890;6.040;2022-12-16T07:56:08;101337.59;;;1.07;96.27
14089;BME280;7120;52.890;6.040;2022-12-16T07:58:53;101344.63;;;1.08;96.13
14089;BME280;7120;52.890;6.040;2022-12-16T08:01:37;101350.22;;;1.07;96.14
14089;BME280;7120;52.890;6.040;2022-12-16T08:04:22;101350.84;;;1.39;96.11
14089;BME280;7120;52.890;6.040;2022-12-16T08:07:06;101362.84;;;1.25;95.77
14089;BME280;7120;52.890;6.040;2022-12-16T08:09:51;101371.22;;;1.35;95.81
14089;BME280;7120;52.890;6.040;2022-12-16T08:12:36;101376.91;;;1.27;95.63
14089;BME280;7120;52.890;6.040;2022-12-16T08:15:20;101378.25;;;1.36;95.48
14089;BME280;7120;52.890;6.040;2022-12-16T08:18:04;101385.22;;;1.25;95.76
14089;BME280;7120;52.890;6.040;2022-12-16T08:20:48;101385.59;;;1.29;95.88
14089;BME280;7120;52.890;6.040;2022-12-16T08:23:32;101391.06;;;1.22;96.88
14089;BME280;7120;52.890;6.040;2022-12-16T08:26:16;101384.38;;;1.25;96.87
14089;BME280;7120;52.890;6.040;2022-12-16T08:29:00;101406.84;;;1.37;97.04
14089;BME280;7120;52.890;6.040;2022-12-16T08:31:44;101402.59;;;1.29;97.67
14089;BME280;7120;52.890;6.040;2022-12-16T08:34:28;101401.69;;;1.17;97.43
14089;BME280;7120;52.890;6.040;2022-12-16T08:37:12;101415.06;;;1.42;97.82
14089;BME280;7120;52.890;6.040;2022-12-16T08:39:56;101410.28;;;1.26;97.80
14089;BME280;7120;52.890;6.040;2022-12-16T08:42:40;101416.88;;;1.30;98.11
14089;BME280;7120;52.890;6.040;2022-12-16T08:45:24;101421.44;;;1.29;98.19
14089;BME280;7120;52.890;6.040;2022-12-16T08:48:08;101431.91;;;1.37;98.05
14089;BME280;7120;52.890;6.040;2022-12-16T08:50:51;101428.16;;;1.38;98.32
14089;BME280;7120;52.890;6.040;2022-12-16T08:53:35;101432.97;;;1.36;98.12
14089;BME280;7120;52.890;6.040;2022-12-16T08:56:20;101436.78;;;1.29;98.68
14089;BME280;7120;52.890;6.040;2022-12-16T08:59:04;101448.75;;;1.33;98.81
14089;BME280;7120;52.890;6.040;2022-12-16T09:01:48;101449.63;;;1.45;98.66
14089;BME280;7120;52.890;6.040;2022-12-16T09:04:31;101442.47;;;1.21;98.49
14089;BME280;7120;52.890;6.040;2022-12-16T09:07:15;101449.75;;;1.20;98.90
14089;BME280;7120;52.890;6.040;2022-12-16T09:09:59;101456.31;;;1.24;99.19
14089;BME280;7120;52.890;6.040;2022-12-16T09:12:44;101460.41;;;1.27;99.30
14089;BME280;7120;52.890;6.040;2022-12-16T09:15:28;101467.16;;;1.36;99.65
14089;BME280;7120;52.890;6.040;2022-12-16T09:18:12;101476.50;;;1.33;99.36
14089;BME280;7120;52.890;6.040;2022-12-16T09:20:57;101471.88;;;1.41;98.44
14089;BME280;7120;52.890;6.040;2022-12-16T09:23:41;101469.91;;;1.48;98.26
14089;BME280;7120;52.890;6.040;2022-12-16T09:26:25;101460.66;;;1.44;97.73
14089;BME280;7120;52.890;6.040;2022-12-16T09:29:09;101480.41;;;1.37;98.26
14089;BME280;7120;52.890;6.040;2022-12-16T09:31:53;101481.44;;;1.55;98.26
14089;BME280;7120;52.890;6.040;2022-12-16T09:34:37;101492.16;;;1.43;98.17
14089;BME280;7120;52.890;6.040;2022-12-16T09:37:21;101498.31;;;1.50;98.20
14089;BME280;7120;52.890;6.040;2022-12-16T09:40:05;101503.25;;;1.35;98.15
14089;BME280;7120;52.890;6.040;2022-12-16T09:46:01;101502.34;;;1.41;98.30
14089;BME280;7120;52.890;6.040;2022-12-16T09:48:50;101509.44;;;1.54;97.80
14089;BME280;7120;52.890;6.040;2022-12-16T09:51:41;101509.59;;;1.59;97.60
14089;BME280;7120;52.890;6.040;2022-12-16T09:54:28;101494.03;;;1.43;97.45
14089;BME280;7120;52.890;6.040;2022-12-16T09:57:15;101529.44;;;1.64;97.47
14089;BME280;7120;52.890;6.040;2022-12-16T10:00:07;101537.53;;;1.64;97.42
14089;BME280;7120;52.890;6.040;2022-12-16T10:02:56;101524.78;;;1.72;96.15
14089;BME280;7120;52.890;6.040;2022-12-16T10:05:55;101534.13;;;1.69;96.36
14089;BME280;7120;52.890;6.040;2022-12-16T10:08:47;101539.09;;;1.72;96.40
14089;BME280;7120;52.890;6.040;2022-12-16T10:11:43;101541.88;;;1.65;96.64
14089;BME280;7120;52.890;6.040;2022-12-16T10:14:36;101527.25;;;1.55;96.96
14089;BME280;7120;52.890;6.040;2022-12-16T10:17:24;101545.84;;;1.63;96.59
14089;BME280;7120;52.890;6.040;2022-12-16T10:23:38;101532.53;;;1.50;97.19
14089;BME280;7120;52.890;6.040;2022-12-16T10:29:21;101533.31;;;1.69;96.67
14089;BME280;7120;52.890;6.040;2022-12-16T10:32:31;101534.75;;;1.71;96.32
14089;BME280;7120;52.890;6.040;2022-12-16T10:38:05;101535.41;;;1.85;95.44
14089;BME280;7120;52.890;6.040;2022-12-16T10:40:52;101533.16;;;1.82;95.46
14089;BME280;7120;52.890;6.040;2022-12-16T10:43:42;101529.13;;;1.91;95.29
14089;BME280;7120;52.890;6.040;2022-12-16T10:46:28;101544.28;;;2.04;95.18
14089;BME280;7120;52.890;6.040;2022-12-16T10:49:15;101522.78;;;1.97;94.62
14089;BME280;7120;52.890;6.040;2022-12-16T10:52:00;101538.63;;;1.93;94.67
14089;BME280;7120;52.890;6.040;2022-12-16T10:58:01;101538.69;;;2.05;94.43
14089;BME280;7120;52.890;6.040;2022-12-16T11:00:51;101524.63;;;1.85;94.09
14089;BME280;7120;52.890;6.040;2022-12-16T11:03:37;101533.69;;;1.90;94.26
14089;BME280;7120;52.890;6.040;2022-12-16T11:06:26;101539.09;;;1.90;94.46
14089;BME280;7120;52.890;6.040;2022-12-16T11:09:27;101548.41;;;2.06;94.14
14089;BME280;7120;52.890;6.040;2022-12-16T11:12:25;101554.94;;;1.99;94.04
14089;BME280;7120;52.890;6.040;2022-12-16T11:15:20;101546.06;;;1.80;94.20
14089;BME280;7120;52.890;6.040;2022-12-16T11:18:07;101548.00;;;1.91;94.87
14089;BME280;7120;52.890;6.040;2022-12-16T11:21:10;101551.38;;;1.86;95.30
14089;BME280;7120;52.890;6.040;2022-12-16T11:24:14;101551.03;;;2.13;94.54
14089;BME280;7120;52.890;6.040;2022-12-16T11:27:04;101558.31;;;2.24;93.95
14089;BME280;7120;52.890;6.040;2022-12-16T11:29:56;101556.03;;;2.09;93.47
14089;BME280;7120;52.890;6.040;2022-12-16T11:33:13;101561.09;;;1.87;93.74
14089;BME280;7120;52.890;6.040;2022-12-16T11:36:21;101554.94;;;1.99;93.69
14089;BME280;7120;52.890;6.040;2022-12-16T11:39:06;101557.66;;;1.80;94.57
14089;BME280;7120;52.890;6.040;2022-12-16T11:41:56;101547.03;;;1.67;94.83
14089;BME280;7120;52.890;6.040;2022-12-16T11:44:44;101555.84;;;1.92;95.03
14089;BME280;7120;52.890;6.040;2022-12-16T11:47:48;101557.13;;;1.90;94.28
14089;BME280;7120;52.890;6.040;2022-12-16T11:50:37;101559.69;;;1.85;94.35
14089;BME280;7120;52.890;6.040;2022-12-16T11:53:39;101573.66;;;2.12;93.92
14089;BME280;7120;52.890;6.040;2022-12-16T11:56:38;101573.28;;;2.08;93.98
14089;BME280;7120;52.890;6.040;2022-12-16T11:59:55;101577.84;;;2.08;93.27
14089;BME280;7120;52.890;6.040;2022-12-16T12:05:40;101572.53;;;2.01;93.04
14089;BME280;7120;52.890;6.040;2022-12-16T12:08:50;101576.88;;;2.02;93.07
14089;BME280;7120;52.890;6.040;2022-12-16T12:11:54;101586.44;;;2.35;93.14
14089;BME280;7120;52.890;6.040;2022-12-16T12:20:57;101591.25;;;2.44;91.33
14089;BME280;7120;52.890;6.040;2022-12-16T12:23:55;101605.16;;;2.30;91.20
14089;BME280;7120;52.890;6.040;2022-12-16T12:27:39;101600.75;;;2.17;91.27
14089;BME280;7120;52.890;6.040;2022-12-16T12:30:08;101601.66;;;2.11;91.78
14089;BME280;7120;52.890;6.040;2022-12-16T12:36:32;101598.78;;;2.12;92.11
14089;BME280;7120;52.890;6.040;2022-12-16T12:42:54;101601.72;;;2.41;92.12
14089;BME280;7120;52.890;6.040;2022-12-16T12:46:00;101602.53;;;2.41;90.95
14089;BME280;7120;52.890;6.040;2022-12-16T12:49:03;101603.09;;;2.13;90.96
14089;BME280;7120;52.890;6.040;2022-12-16T12:54:52;101607.41;;;1.84;92.70
14089;BME280;7120;52.890;6.040;2022-12-16T12:57:42;101610.22;;;2.08;93.47
14089;BME280;7120;52.890;6.040;2022-12-16T13:00:31;101622.06;;;2.07;92.60
14089;BME280;7120;52.890;6.040;2022-12-16T13:03:45;101620.38;;;2.24;92.53
14089;BME280;7120;52.890;6.040;2022-12-16T13:06:34;101623.56;;;2.21;92.12
14089;BME280;7120;52.890;6.040;2022-12-16T13:09:31;101617.56;;;2.19;92.07
14089;BME280;7120;52.890;6.040;2022-12-16T13:12:19;101624.22;;;2.16;91.73
14089;BME280;7120;52.890;6.040;2022-12-16T13:15:06;101621.69;;;2.03;91.83
14089;BME280;7120;52.890;6.040;2022-12-16T13:20:44;101621.09;;;2.01;92.77
14089;BME280;7120;52.890;6.040;2022-12-16T13:23:31;101622.97;;;2.01;92.40
14089;BME280;7120;52.890;6.040;2022-12-16T13:26:18;101638.47;;;2.24;91.59
14089;BME280;7120;52.890;6.040;2022-12-16T13:35:03;101641.63;;;2.81;90.23
14089;BME280;7120;52.890;6.040;2022-12-16T13:38:02;101633.94;;;2.66;89.29
14089;BME280;7120;52.890;6.040;2022-12-16T13:40:57;101651.13;;;2.41;90.02
14089;BME280;7120;52.890;6.040;2022-12-16T13:46:43;101654.13;;;2.63;89.37
14089;BME280;7120;52.890;6.040;2022-12-16T13:49:46;101650.63;;;2.63;90.13
14089;BME280;7120;52.890;6.040;2022-12-16T13:58:25;101663.38;;;2.86;88.65
14089;BME280;7120;52.890;6.040;2022-12-16T14:01:17;101674.63;;;2.53;88.96
14089;BME280;7120;52.890;6.040;2022-12-16T14:04:08;101676.16;;;2.30;90.68
14089;BME280;7120;52.890;6.040;2022-12-16T14:06:54;101686.28;;;2.35;90.60
14089;BME280;7120;52.890;6.040;2022-12-16T14:09:42;101683.91;;;2.08;90.99
14089;BME280;7120;52.890;6.040;2022-12-16T14:16:00;101682.53;;;2.17;91.10
14089;BME280;7120;52.890;6.040;2022-12-16T14:19:13;101681.47;;;2.37;91.12
14089;BME280;7120;52.890;6.040;2022-12-16T14:25:24;101688.75;;;2.36;90.56
14089;BME280;7120;52.890;6.040;2022-12-16T14:31:14;101688.19;;;1.98;91.93
14089;BME280;7120;52.890;6.040;2022-12-16T14:34:01;101705.00;;;2.11;91.64
14089;BME280;7120;52.890;6.040;2022-12-16T14:36:46;101700.09;;;2.27;91.20
14089;BME280;7120;52.890;6.040;2022-12-16T14:39:34;101702.78;;;2.08;91.89
14089;BME280;7120;52.890;6.040;2022-12-16T14:42:27;101699.09;;;1.84;92.55
14089;BME280;7120;52.890;6.040;2022-12-16T14:45:36;101714.00;;;1.87;92.96
14089;BME280;7120;52.890;6.040;2022-12-16T14:48:33;101723.56;;;1.64;93.86
14089;BME280;7120;52.890;6.040;2022-12-16T14:51:31;101727.53;;;2.05;93.58
14089;BME280;7120;52.890;6.040;2022-12-16T14:57:20;101725.38;;;1.89;93.03
14089;BME280;7120;52.890;6.040;2022-12-16T15:06:28;101752.00;;;2.04;93.20
14089;BME280;7120;52.890;6.040;2022-12-16T15:09:20;101750.09;;;2.29;92.32
14089;BME280;7120;52.890;6.040;2022-12-16T15:12:06;101758.41;;;2.46;91.02
14089;BME280;7120;52.890;6.040;2022-12-16T15:14:51;101766.25;;;2.11;90.83
14089;BME280;7120;52.890;6.040;2022-12-16T15:17:56;101766.19;;;2.17;91.98
14089;BME280;7120;52.890;6.040;2022-12-16T15:23:32;101759.44;;;2.45;90.98
14089;BME280;7120;52.890;6.040;2022-12-16T15:26:22;101763.97;;;2.33;90.39
14089;BME280;7120;52.890;6.040;2022-12-16T15:35:35;101780.25;;;2.01;91.41
14089;BME280;7120;52.890;6.040;2022-12-16T15:38:31;101784.19;;;2.24;91.54
14089;BME280;7120;52.890;6.040;2022-12-16T15:41:20;101780.22;;;2.26;91.29
14089;BME280;7120;52.890;6.040;2022-12-16T15:44:13;101772.19;;;2.38;90.55
14089;BME280;7120;52.890;6.040;2022-12-16T15:46:58;101783.81;;;2.20;90.59
14089;BME280;7120;52.890;6.040;2022-12-16T15:49:45;101786.75;;;2.37;89.96
14089;BME280;7120;52.890;6.040;2022-12-16T15:52:37;101783.88;;;2.32;90.20
14089;BME280;7120;52.890;6.040;2022-12-16T15:55:36;101786.66;;;2.25;89.80
14089;BME280;7120;52.890;6.040;2022-12-16T15:58:33;101793.94;;;2.25;89.90
14089;BME280;7120;52.890;6.040;2022-12-16T16:01:27;101788.81;;;1.98;89.82
14089;BME280;7120;52.890;6.040;2022-12-16T16:04:21;101783.75;;;1.83;90.36
14089;BME280;7120;52.890;6.040;2022-12-16T16:07:23;101797.38;;;1.88;89.35
14089;BME280;7120;52.890;6.040;2022-12-16T16:12:57;101806.84;;;1.73;88.46
14089;BME280;7120;52.890;6.040;2022-12-16T16:15:41;101810.06;;;1.63;89.75
14089;BME280;7120;52.890;6.040;2022-12-16T16:18:25;101802.94;;;1.69;90.14
14089;BME280;7120;52.890;6.040;2022-12-16T16:21:09;101808.50;;;1.74;88.94
14089;BME280;7120;52.890;6.040;2022-12-16T16:23:53;101804.69;;;1.56;89.03
14089;BME280;7120;52.890;6.040;2022-12-16T16:26:37;101801.91;;;1.38;88.68
14089;BME280;7120;52.890;6.040;2022-12-16T16:29:20;101794.09;;;1.30;89.47
14089;BME280;7120;52.890;6.040;2022-12-16T16:32:07;101816.66;;;1.35;90.58